sensor_id;sensor_type;location;lat;lon;timestamp;P1;durP1;ratioP1;P2;durP2;ratioP2
12603;SDS011;6367;52.508;13.284;2023-08-21T00:01:29;8.93;;;8.13;;
12603;SDS011;6367;52.508;13.284;2023-08-21T00:03:55;9.80;;;8.80;;
12603;SDS011;6367;52.508;13.284;2023-08-21T00:06:22;9.97;;;8.93;;
12603;SDS011;6367;52.508;13.284;2023-08-21T00:08:47;8.73;;;8.00;;
12603;SDS011;6367;52.508;13.284;2023-08-21T00:11:13;9.07;;;8.27;;
12603;SDS011;6367;52.508;13.284;2023-08-21T00:13:38;10.17;;;8.20;;
12603;SDS011;6367;52.508;13.284;2023-08-21T00:16:04;9.60;;;8.40;;
12603;SDS011;6367;52.508;13.284;2023-08-21T00:18:30;8.77;;;8.07;;
12603;SDS011;6367;52.508;13.284;2023-08-21T00:20:55;8.90;;;8.10;;
12603;SDS011;6367;52.508;13.284;2023-08-21T00:23:21;9.00;;;8.13;;
12603;SDS011;6367;52.508;13.284;2023-08-21T00:25:47;9.93;;;7.97;;
12603;SDS011;6367;52.508;13.284;2023-08-21T00:28:13;8.23;;;7.50;;
12603;SDS011;6367;52.508;13.284;2023-08-21T00:30:39;7.60;;;7.00;;
12603;SDS011;6367;52.508;13.284;2023-08-21T00:33:04;8.67;;;7.87;;
12603;SDS011;6367;52.508;13.284;2023-08-21T00:35:30;7.53;;;6.93;;
12603;SDS011;6367;52.508;13.284;2023-08-21T00:37:56;7.73;;;7.03;;
12603;SDS011;6367;52.508;13.284;2023-08-21T00:40:22;8.57;;;7.87;;
12603;SDS011;6367;52.508;13.284;2023-08-21T00:42:47;8.47;;;7.63;;
12603;SDS011;6367;52.508;13.284;2023-08-21T00:45:13;8.77;;;7.80;;
12603;SDS011;6367;52.508;13.284;2023-08-21T00:47:39;8.90;;;8.07;;
12603;SDS011;6367;52.508;13.284;2023-08-21T00:50:05;8.83;;;8.03;;
12603;SDS011;6367;52.508;13.284;2023-08-21T00:52:33;8.83;;;7.97;;
12603;SDS011;6367;52.508;13.284;2023-08-21T00:55:00;8.70;;;7.90;;
12603;SDS011;6367;52.508;13.284;2023-08-21T00:57:26;8.40;;;7.57;;
12603;SDS011;6367;52.508;13.284;2023-08-21T00:59:52;9.20;;;8.20;;
12603;SDS011;6367;52.508;13.284;2023-08-21T01:02:18;9.10;;;8.13;;
12603;SDS011;6367;52.508;13.284;2023-08-21T01:04:44;9.30;;;8.50;;
12603;SDS011;6367;52.508;13.284;2023-08-21T01:07:10;8.13;;;7.30;;
12603;SDS011;6367;52.508;13.284;2023-08-21T01:12:25;8.30;;;7.60;;
12603;SDS011;6367;52.508;13.284;2023-08-21T01:14:59;11.00;;;8.93;;
12603;SDS011;6367;52.508;13.284;2023-08-21T01:17:33;10.47;;;9.47;;
12603;SDS011;6367;52.508;13.284;2023-08-21T01:20:00;8.23;;;7.40;;
12603;SDS011;6367;52.508;13.284;2023-08-21T01:22:27;9.33;;;8.47;;
12603;SDS011;6367;52.508;13.284;2023-08-21T01:25:04;8.73;;;7.93;;
12603;SDS011;6367;52.508;13.284;2023-08-21T01:27:30;9.30;;;8.60;;
12603;SDS011;6367;52.508;13.284;2023-08-21T01:29:58;9.40;;;8.50;;
12603;SDS011;6367;52.508;13.284;2023-08-21T01:32:27;8.90;;;8.20;;
12603;SDS011;6367;52.508;13.284;2023-08-21T01:34:59;10.10;;;8.20;;
12603;SDS011;6367;52.508;13.284;2023-08-21T01:37:26;8.37;;;7.67;;
12603;SDS011;6367;52.508;13.284;2023-08-21T01:39:53;9.50;;;8.53;;
12603;SDS011;6367;52.508;13.284;2023-08-21T01:42:22;10.53;;;9.53;;
12603;SDS011;6367;52.508;13.284;2023-08-21T01:44:48;8.73;;;8.03;;
12603;SDS011;6367;52.508;13.284;2023-08-21T01:47:13;8.80;;;8.10;;
12603;SDS011;6367;52.508;13.284;2023-08-21T01:49:39;9.73;;;8.83;;
12603;SDS011;6367;52.508;13.284;2023-08-21T01:52:05;9.30;;;8.40;;
12603;SDS011;6367;52.508;13.284;2023-08-21T01:54:30;9.23;;;8.43;;
12603;SDS011;6367;52.508;13.284;2023-08-21T01:56:56;9.27;;;8.03;;
12603;SDS011;6367;52.508;13.284;2023-08-21T01:59:22;11.23;;;9.33;;
12603;SDS011;6367;52.508;13.284;2023-08-21T02:01:48;10.07;;;9.17;;
12603;SDS011;6367;52.508;13.284;2023-08-21T02:04:14;10.10;;;9.20;;
12603;SDS011;6367;52.508;13.284;2023-08-21T02:06:40;10.77;;;9.67;;
12603;SDS011;6367;52.508;13.284;2023-08-21T02:09:05;8.80;;;8.00;;
12603;SDS011;6367;52.508;13.284;2023-08-21T02:11:31;10.10;;;9.20;;
12603;SDS011;6367;52.508;13.284;2023-08-21T02:13:57;9.50;;;8.60;;
12603;SDS011;6367;52.508;13.284;2023-08-21T02:16:22;10.07;;;9.17;;
12603;SDS011;6367;52.508;13.284;2023-08-21T02:18:48;9.37;;;8.57;;
12603;SDS011;6367;52.508;13.284;2023-08-21T02:21:14;8.03;;;7.33;;
12603;SDS011;6367;52.508;13.284;2023-08-21T02:23:39;9.67;;;8.67;;
12603;SDS011;6367;52.508;13.284;2023-08-21T02:26:05;9.00;;;8.30;;
12603;SDS011;6367;52.508;13.284;2023-08-21T02:28:30;9.20;;;8.33;;
12603;SDS011;6367;52.508;13.284;2023-08-21T02:30:56;10.37;;;9.47;;
12603;SDS011;6367;52.508;13.284;2023-08-21T02:33:21;8.47;;;7.77;;
12603;SDS011;6367;52.508;13.284;2023-08-21T02:35:47;9.90;;;8.90;;
12603;SDS011;6367;52.508;13.284;2023-08-21T02:38:13;9.53;;;8.70;;
12603;SDS011;6367;52.508;13.284;2023-08-21T02:40:38;8.93;;;8.13;;
12603;SDS011;6367;52.508;13.284;2023-08-21T02:43:04;9.10;;;8.23;;
12603;SDS011;6367;52.508;13.284;2023-08-21T02:45:30;9.13;;;8.10;;
12603;SDS011;6367;52.508;13.284;2023-08-21T02:47:55;9.20;;;8.30;;
12603;SDS011;6367;52.508;13.284;2023-08-21T02:50:21;8.90;;;8.10;;
12603;SDS011;6367;52.508;13.284;2023-08-21T02:52:47;10.20;;;9.20;;
12603;SDS011;6367;52.508;13.284;2023-08-21T02:55:12;9.10;;;8.30;;
12603;SDS011;6367;52.508;13.284;2023-08-21T02:57:39;9.27;;;8.37;;
12603;SDS011;6367;52.508;13.284;2023-08-21T03:00:05;9.60;;;8.40;;
12603;SDS011;6367;52.508;13.284;2023-08-21T03:02:32;9.60;;;8.80;;
12603;SDS011;6367;52.508;13.284;2023-08-21T03:04:59;8.60;;;7.90;;
12603;SDS011;6367;52.508;13.284;2023-08-21T03:07:25;10.43;;;8.07;;
12603;SDS011;6367;52.508;13.284;2023-08-21T03:09:50;8.30;;;7.60;;
12603;SDS011;6367;52.508;13.284;2023-08-21T03:12:16;8.40;;;7.70;;
12603;SDS011;6367;52.508;13.284;2023-08-21T03:14:41;9.50;;;8.60;;
12603;SDS011;6367;52.508;13.284;2023-08-21T03:17:07;10.00;;;8.90;;
12603;SDS011;6367;52.508;13.284;2023-08-21T03:19:33;8.97;;;8.17;;
12603;SDS011;6367;52.508;13.284;2023-08-21T03:21:59;8.90;;;8.20;;
12603;SDS011;6367;52.508;13.284;2023-08-21T03:24:24;10.93;;;9.60;;
12603;SDS011;6367;52.508;13.284;2023-08-21T03:26:50;9.50;;;8.60;;
12603;SDS011;6367;52.508;13.284;2023-08-21T03:29:16;10.30;;;9.07;;
12603;SDS011;6367;52.508;13.284;2023-08-21T03:31:41;8.50;;;7.80;;
12603;SDS011;6367;52.508;13.284;2023-08-21T03:34:07;8.77;;;7.77;;
12603;SDS011;6367;52.508;13.284;2023-08-21T03:36:33;8.13;;;7.43;;
12603;SDS011;6367;52.508;13.284;2023-08-21T03:39:01;9.40;;;8.50;;
12603;SDS011;6367;52.508;13.284;2023-08-21T03:41:29;9.60;;;8.60;;
12603;SDS011;6367;52.508;13.284;2023-08-21T03:43:54;8.93;;;8.03;;
12603;SDS011;6367;52.508;13.284;2023-08-21T03:46:20;9.30;;;8.50;;
12603;SDS011;6367;52.508;13.284;2023-08-21T03:48:46;8.73;;;8.03;;
12603;SDS011;6367;52.508;13.284;2023-08-21T03:51:11;9.60;;;8.80;;
12603;SDS011;6367;52.508;13.284;2023-08-21T03:53:37;9.27;;;8.37;;
12603;SDS011;6367;52.508;13.284;2023-08-21T03:56:03;9.10;;;8.40;;
12603;SDS011;6367;52.508;13.284;2023-08-21T03:58:29;10.03;;;7.93;;
12603;SDS011;6367;52.508;13.284;2023-08-21T04:00:54;8.87;;;8.07;;
12603;SDS011;6367;52.508;13.284;2023-08-21T04:03:20;9.43;;;8.63;;
12603;SDS011;6367;52.508;13.284;2023-08-21T04:05:46;9.43;;;8.63;;
12603;SDS011;6367;52.508;13.284;2023-08-21T04:08:12;8.60;;;7.90;;
12603;SDS011;6367;52.508;13.284;2023-08-21T04:10:38;9.20;;;8.40;;
12603;SDS011;6367;52.508;13.284;2023-08-21T04:13:04;8.67;;;7.97;;
12603;SDS011;6367;52.508;13.284;2023-08-21T04:15:30;9.30;;;8.50;;
12603;SDS011;6367;52.508;13.284;2023-08-21T04:17:56;10.40;;;9.33;;
12603;SDS011;6367;52.508;13.284;2023-08-21T04:20:22;10.17;;;9.37;;
12603;SDS011;6367;52.508;13.284;2023-08-21T04:22:48;9.63;;;8.57;;
12603;SDS011;6367;52.508;13.284;2023-08-21T04:25:14;10.03;;;8.93;;
12603;SDS011;6367;52.508;13.284;2023-08-21T04:27:41;10.27;;;9.27;;
12603;SDS011;6367;52.508;13.284;2023-08-21T04:30:07;10.10;;;9.20;;
12603;SDS011;6367;52.508;13.284;2023-08-21T04:32:33;9.80;;;9.00;;
12603;SDS011;6367;52.508;13.284;2023-08-21T04:34:59;10.20;;;9.20;;
12603;SDS011;6367;52.508;13.284;2023-08-21T04:37:25;9.80;;;8.80;;
12603;SDS011;6367;52.508;13.284;2023-08-21T04:39:51;10.23;;;9.23;;
12603;SDS011;6367;52.508;13.284;2023-08-21T04:42:17;10.40;;;9.40;;
12603;SDS011;6367;52.508;13.284;2023-08-21T04:44:43;10.33;;;9.43;;
12603;SDS011;6367;52.508;13.284;2023-08-21T04:49:53;10.83;;;9.73;;
12603;SDS011;6367;52.508;13.284;2023-08-21T04:52:19;9.57;;;8.77;;
12603;SDS011;6367;52.508;13.284;2023-08-21T04:54:46;9.43;;;8.63;;
12603;SDS011;6367;52.508;13.284;2023-08-21T04:57:12;10.70;;;9.70;;
12603;SDS011;6367;52.508;13.284;2023-08-21T04:59:38;10.40;;;9.43;;
12603;SDS011;6367;52.508;13.284;2023-08-21T05:02:04;10.57;;;9.57;;
12603;SDS011;6367;52.508;13.284;2023-08-21T05:04:30;10.23;;;9.00;;
12603;SDS011;6367;52.508;13.284;2023-08-21T05:06:56;11.17;;;10.17;;
12603;SDS011;6367;52.508;13.284;2023-08-21T05:09:21;10.30;;;9.40;;
12603;SDS011;6367;52.508;13.284;2023-08-21T05:11:47;9.83;;;9.07;;
12603;SDS011;6367;52.508;13.284;2023-08-21T05:14:12;9.40;;;8.60;;
12603;SDS011;6367;52.508;13.284;2023-08-21T05:16:38;9.57;;;8.70;;
12603;SDS011;6367;52.508;13.284;2023-08-21T05:19:04;10.30;;;9.40;;
12603;SDS011;6367;52.508;13.284;2023-08-21T05:21:29;10.77;;;9.37;;
12603;SDS011;6367;52.508;13.284;2023-08-21T05:23:55;11.20;;;9.50;;
12603;SDS011;6367;52.508;13.284;2023-08-21T05:26:21;10.03;;;9.03;;
12603;SDS011;6367;52.508;13.284;2023-08-21T05:28:46;10.87;;;9.93;;
12603;SDS011;6367;52.508;13.284;2023-08-21T05:31:12;10.73;;;9.73;;
12603;SDS011;6367;52.508;13.284;2023-08-21T05:33:37;10.83;;;9.80;;
12603;SDS011;6367;52.508;13.284;2023-08-21T05:36:04;10.80;;;9.90;;
12603;SDS011;6367;52.508;13.284;2023-08-21T05:38:29;10.03;;;9.03;;
12603;SDS011;6367;52.508;13.284;2023-08-21T05:40:55;11.20;;;10.20;;
12603;SDS011;6367;52.508;13.284;2023-08-21T05:43:21;9.30;;;8.50;;
12603;SDS011;6367;52.508;13.284;2023-08-21T05:45:47;10.67;;;9.70;;
12603;SDS011;6367;52.508;13.284;2023-08-21T05:48:13;11.63;;;10.33;;
12603;SDS011;6367;52.508;13.284;2023-08-21T05:50:39;9.93;;;9.13;;
12603;SDS011;6367;52.508;13.284;2023-08-21T05:53:05;10.53;;;9.63;;
12603;SDS011;6367;52.508;13.284;2023-08-21T05:55:31;10.73;;;9.83;;
12603;SDS011;6367;52.508;13.284;2023-08-21T05:57:57;12.30;;;11.20;;
12603;SDS011;6367;52.508;13.284;2023-08-21T06:00:23;10.50;;;9.60;;
12603;SDS011;6367;52.508;13.284;2023-08-21T06:02:49;11.03;;;10.00;;
12603;SDS011;6367;52.508;13.284;2023-08-21T06:05:14;11.23;;;10.20;;
12603;SDS011;6367;52.508;13.284;2023-08-21T06:07:40;10.77;;;9.77;;
12603;SDS011;6367;52.508;13.284;2023-08-21T06:10:09;10.63;;;9.83;;
12603;SDS011;6367;52.508;13.284;2023-08-21T06:12:40;11.43;;;10.33;;
12603;SDS011;6367;52.508;13.284;2023-08-21T06:15:06;10.20;;;9.30;;
12603;SDS011;6367;52.508;13.284;2023-08-21T06:17:35;10.40;;;9.50;;
12603;SDS011;6367;52.508;13.284;2023-08-21T06:20:02;12.30;;;10.60;;
12603;SDS011;6367;52.508;13.284;2023-08-21T06:22:30;11.00;;;10.10;;
12603;SDS011;6367;52.508;13.284;2023-08-21T06:24:56;10.47;;;9.57;;
12603;SDS011;6367;52.508;13.284;2023-08-21T06:27:22;10.00;;;9.20;;
12603;SDS011;6367;52.508;13.284;2023-08-21T06:29:48;10.43;;;9.63;;
12603;SDS011;6367;52.508;13.284;2023-08-21T06:32:13;12.73;;;11.50;;
12603;SDS011;6367;52.508;13.284;2023-08-21T06:34:39;11.73;;;10.83;;
12603;SDS011;6367;52.508;13.284;2023-08-21T06:37:05;10.93;;;9.90;;
12603;SDS011;6367;52.508;13.284;2023-08-21T06:39:30;11.13;;;10.13;;
12603;SDS011;6367;52.508;13.284;2023-08-21T06:41:56;10.37;;;9.50;;
12603;SDS011;6367;52.508;13.284;2023-08-21T06:44:25;10.80;;;9.80;;
12603;SDS011;6367;52.508;13.284;2023-08-21T06:46:51;9.90;;;9.10;;
12603;SDS011;6367;52.508;13.284;2023-08-21T06:49:16;9.90;;;9.03;;
12603;SDS011;6367;52.508;13.284;2023-08-21T06:51:42;9.80;;;8.80;;
12603;SDS011;6367;52.508;13.284;2023-08-21T06:54:08;8.63;;;7.93;;
12603;SDS011;6367;52.508;13.284;2023-08-21T06:56:34;8.63;;;7.90;;
12603;SDS011;6367;52.508;13.284;2023-08-21T06:58:59;8.60;;;7.80;;
12603;SDS011;6367;52.508;13.284;2023-08-21T07:01:25;8.27;;;7.43;;
12603;SDS011;6367;52.508;13.284;2023-08-21T07:03:50;7.20;;;6.70;;
12603;SDS011;6367;52.508;13.284;2023-08-21T07:06:16;8.00;;;7.30;;
12603;SDS011;6367;52.508;13.284;2023-08-21T07:08:42;8.47;;;7.00;;
12603;SDS011;6367;52.508;13.284;2023-08-21T07:11:07;7.70;;;7.00;;
12603;SDS011;6367;52.508;13.284;2023-08-21T07:13:35;7.20;;;6.50;;
12603;SDS011;6367;52.508;13.284;2023-08-21T07:16:01;6.40;;;5.90;;
12603;SDS011;6367;52.508;13.284;2023-08-21T07:18:34;6.73;;;6.10;;
12603;SDS011;6367;52.508;13.284;2023-08-21T07:21:00;6.73;;;6.00;;
12603;SDS011;6367;52.508;13.284;2023-08-21T07:23:28;6.20;;;5.60;;
12603;SDS011;6367;52.508;13.284;2023-08-21T07:25:54;7.63;;;6.30;;
12603;SDS011;6367;52.508;13.284;2023-08-21T07:28:20;5.93;;;5.43;;
12603;SDS011;6367;52.508;13.284;2023-08-21T07:30:46;6.67;;;6.10;;
12603;SDS011;6367;52.508;13.284;2023-08-21T07:33:11;6.77;;;6.17;;
12603;SDS011;6367;52.508;13.284;2023-08-21T07:35:37;6.87;;;5.63;;
12603;SDS011;6367;52.508;13.284;2023-08-21T07:38:03;7.67;;;5.67;;
12603;SDS011;6367;52.508;13.284;2023-08-21T07:40:28;6.43;;;5.83;;
12603;SDS011;6367;52.508;13.284;2023-08-21T07:42:54;6.80;;;5.63;;
12603;SDS011;6367;52.508;13.284;2023-08-21T07:45:20;6.50;;;5.90;;
12603;SDS011;6367;52.508;13.284;2023-08-21T07:47:46;5.57;;;5.03;;
12603;SDS011;6367;52.508;13.284;2023-08-21T07:50:11;5.40;;;4.63;;
12603;SDS011;6367;52.508;13.284;2023-08-21T07:52:39;5.17;;;4.67;;
12603;SDS011;6367;52.508;13.284;2023-08-21T07:55:05;5.73;;;5.17;;
12603;SDS011;6367;52.508;13.284;2023-08-21T07:57:32;4.20;;;3.80;;
12603;SDS011;6367;52.508;13.284;2023-08-21T07:59:58;5.07;;;4.00;;
12603;SDS011;6367;52.508;13.284;2023-08-21T08:02:23;7.10;;;4.30;;
12603;SDS011;6367;52.508;13.284;2023-08-21T08:04:49;4.43;;;3.47;;
12603;SDS011;6367;52.508;13.284;2023-08-21T08:07:15;4.67;;;3.07;;
12603;SDS011;6367;52.508;13.284;2023-08-21T08:09:41;4.03;;;2.90;;
12603;SDS011;6367;52.508;13.284;2023-08-21T08:12:07;4.87;;;3.23;;
12603;SDS011;6367;52.508;13.284;2023-08-21T08:14:32;3.63;;;3.20;;
12603;SDS011;6367;52.508;13.284;2023-08-21T08:16:58;4.47;;;3.73;;
12603;SDS011;6367;52.508;13.284;2023-08-21T08:19:24;4.97;;;3.43;;
12603;SDS011;6367;52.508;13.284;2023-08-21T08:21:49;3.40;;;3.20;;
12603;SDS011;6367;52.508;13.284;2023-08-21T08:24:15;3.73;;;3.30;;
12603;SDS011;6367;52.508;13.284;2023-08-21T08:26:41;4.10;;;3.70;;
12603;SDS011;6367;52.508;13.284;2023-08-21T08:29:08;4.70;;;3.30;;
12603;SDS011;6367;52.508;13.284;2023-08-21T08:31:34;4.00;;;3.57;;
12603;SDS011;6367;52.508;13.284;2023-08-21T08:33:59;3.23;;;2.90;;
12603;SDS011;6367;52.508;13.284;2023-08-21T08:36:25;5.07;;;3.07;;
12603;SDS011;6367;52.508;13.284;2023-08-21T08:38:51;3.70;;;3.40;;
12603;SDS011;6367;52.508;13.284;2023-08-21T08:41:30;4.47;;;3.17;;
12603;SDS011;6367;52.508;13.284;2023-08-21T08:44:03;3.87;;;2.80;;
12603;SDS011;6367;52.508;13.284;2023-08-21T08:46:29;2.60;;;2.23;;
12603;SDS011;6367;52.508;13.284;2023-08-21T08:48:56;3.37;;;2.07;;
12603;SDS011;6367;52.508;13.284;2023-08-21T08:51:23;2.00;;;1.90;;
12603;SDS011;6367;52.508;13.284;2023-08-21T08:53:50;3.43;;;2.30;;
12603;SDS011;6367;52.508;13.284;2023-08-21T08:56:16;3.63;;;1.63;;
12603;SDS011;6367;52.508;13.284;2023-08-21T08:58:42;3.30;;;1.43;;
12603;SDS011;6367;52.508;13.284;2023-08-21T09:01:08;1.67;;;1.43;;
12603;SDS011;6367;52.508;13.284;2023-08-21T09:03:35;2.33;;;1.83;;
12603;SDS011;6367;52.508;13.284;2023-08-21T09:06:01;3.47;;;1.63;;
12603;SDS011;6367;52.508;13.284;2023-08-21T09:08:28;2.20;;;1.50;;
12603;SDS011;6367;52.508;13.284;2023-08-21T09:10:54;2.20;;;1.50;;
12603;SDS011;6367;52.508;13.284;2023-08-21T09:13:19;1.40;;;1.20;;
12603;SDS011;6367;52.508;13.284;2023-08-21T09:15:46;2.00;;;1.73;;
12603;SDS011;6367;52.508;13.284;2023-08-21T09:18:14;1.97;;;1.40;;
12603;SDS011;6367;52.508;13.284;2023-08-21T09:20:40;2.60;;;1.40;;
12603;SDS011;6367;52.508;13.284;2023-08-21T09:23:06;3.00;;;1.43;;
12603;SDS011;6367;52.508;13.284;2023-08-21T09:25:36;2.07;;;1.37;;
12603;SDS011;6367;52.508;13.284;2023-08-21T09:28:04;1.67;;;1.40;;
12603;SDS011;6367;52.508;13.284;2023-08-21T09:30:42;3.90;;;1.53;;
12603;SDS011;6367;52.508;13.284;2023-08-21T09:33:09;2.33;;;1.60;;
12603;SDS011;6367;52.508;13.284;2023-08-21T09:35:34;2.17;;;1.30;;
12603;SDS011;6367;52.508;13.284;2023-08-21T09:38:00;2.97;;;2.27;;
12603;SDS011;6367;52.508;13.284;2023-08-21T09:40:26;2.30;;;1.30;;
12603;SDS011;6367;52.508;13.284;2023-08-21T09:42:52;2.03;;;1.33;;
12603;SDS011;6367;52.508;13.284;2023-08-21T09:45:20;3.70;;;1.63;;
12603;SDS011;6367;52.508;13.284;2023-08-21T09:47:46;3.83;;;1.53;;
12603;SDS011;6367;52.508;13.284;2023-08-21T09:50:12;2.07;;;1.53;;
12603;SDS011;6367;52.508;13.284;2023-08-21T09:52:38;3.03;;;1.43;;
12603;SDS011;6367;52.508;13.284;2023-08-21T09:55:04;2.97;;;1.70;;
12603;SDS011;6367;52.508;13.284;2023-08-21T09:57:30;1.70;;;1.43;;
12603;SDS011;6367;52.508;13.284;2023-08-21T09:59:58;2.33;;;1.50;;
12603;SDS011;6367;52.508;13.284;2023-08-21T10:02:26;2.77;;;1.70;;
12603;SDS011;6367;52.508;13.284;2023-08-21T10:04:52;1.60;;;1.50;;
12603;SDS011;6367;52.508;13.284;2023-08-21T10:07:20;3.00;;;1.90;;
12603;SDS011;6367;52.508;13.284;2023-08-21T10:09:47;3.13;;;2.07;;
12603;SDS011;6367;52.508;13.284;2023-08-21T10:12:14;2.20;;;1.97;;
12603;SDS011;6367;52.508;13.284;2023-08-21T10:14:41;2.00;;;1.60;;
12603;SDS011;6367;52.508;13.284;2023-08-21T10:17:07;2.33;;;1.50;;
12603;SDS011;6367;52.508;13.284;2023-08-21T10:19:34;1.80;;;1.70;;
12603;SDS011;6367;52.508;13.284;2023-08-21T10:22:00;1.63;;;1.23;;
12603;SDS011;6367;52.508;13.284;2023-08-21T10:24:28;2.20;;;1.50;;
12603;SDS011;6367;52.508;13.284;2023-08-21T10:27:02;2.00;;;1.60;;
12603;SDS011;6367;52.508;13.284;2023-08-21T10:29:28;2.50;;;1.63;;
12603;SDS011;6367;52.508;13.284;2023-08-21T10:32:02;2.80;;;1.83;;
12603;SDS011;6367;52.508;13.284;2023-08-21T10:34:35;1.63;;;1.30;;
12603;SDS011;6367;52.508;13.284;2023-08-21T10:39:35;1.30;;;1.20;;
12603;SDS011;6367;52.508;13.284;2023-08-21T10:42:09;1.57;;;1.47;;
12603;SDS011;6367;52.508;13.284;2023-08-21T10:50:06;2.30;;;1.53;;
12603;SDS011;6367;52.508;13.284;2023-08-21T10:52:39;3.90;;;1.70;;
12603;SDS011;6367;52.508;13.284;2023-08-21T10:55:07;2.50;;;1.23;;
12603;SDS011;6367;52.508;13.284;2023-08-21T10:57:36;1.97;;;1.20;;
12603;SDS011;6367;52.508;13.284;2023-08-21T11:02:36;3.27;;;1.70;;
12603;SDS011;6367;52.508;13.284;2023-08-21T11:05:03;2.50;;;1.53;;
12603;SDS011;6367;52.508;13.284;2023-08-21T11:07:30;2.70;;;1.63;;
12603;SDS011;6367;52.508;13.284;2023-08-21T11:10:02;2.53;;;1.47;;
12603;SDS011;6367;52.508;13.284;2023-08-21T11:12:28;2.10;;;1.60;;
12603;SDS011;6367;52.508;13.284;2023-08-21T11:14:54;1.33;;;1.23;;
12603;SDS011;6367;52.508;13.284;2023-08-21T11:17:20;1.90;;;1.17;;
12603;SDS011;6367;52.508;13.284;2023-08-21T11:19:45;1.20;;;1.10;;
12603;SDS011;6367;52.508;13.284;2023-08-21T11:22:13;2.43;;;1.23;;
12603;SDS011;6367;52.508;13.284;2023-08-21T11:24:45;1.50;;;1.30;;
12603;SDS011;6367;52.508;13.284;2023-08-21T11:27:13;2.10;;;1.40;;
12603;SDS011;6367;52.508;13.284;2023-08-21T11:29:47;2.00;;;1.30;;
12603;SDS011;6367;52.508;13.284;2023-08-21T11:32:21;2.30;;;1.53;;
12603;SDS011;6367;52.508;13.284;2023-08-21T11:34:48;2.73;;;1.50;;
12603;SDS011;6367;52.508;13.284;2023-08-21T11:37:16;2.20;;;1.37;;
12603;SDS011;6367;52.508;13.284;2023-08-21T11:39:48;2.60;;;1.40;;
12603;SDS011;6367;52.508;13.284;2023-08-21T11:42:16;1.83;;;1.37;;
12603;SDS011;6367;52.508;13.284;2023-08-21T11:44:44;3.00;;;1.40;;
12603;SDS011;6367;52.508;13.284;2023-08-21T11:47:10;1.33;;;1.23;;
12603;SDS011;6367;52.508;13.284;2023-08-21T11:49:37;4.30;;;1.50;;
12603;SDS011;6367;52.508;13.284;2023-08-21T11:52:04;2.33;;;1.27;;
12603;SDS011;6367;52.508;13.284;2023-08-21T11:54:34;1.50;;;1.20;;
12603;SDS011;6367;52.508;13.284;2023-08-21T11:57:03;3.47;;;1.57;;
12603;SDS011;6367;52.508;13.284;2023-08-21T11:59:38;1.67;;;1.20;;
12603;SDS011;6367;52.508;13.284;2023-08-21T12:02:08;3.30;;;1.90;;
12603;SDS011;6367;52.508;13.284;2023-08-21T12:04:35;3.33;;;1.70;;
12603;SDS011;6367;52.508;13.284;2023-08-21T12:07:01;4.00;;;2.17;;
12603;SDS011;6367;52.508;13.284;2023-08-21T12:09:27;3.30;;;2.10;;
12603;SDS011;6367;52.508;13.284;2023-08-21T12:11:52;5.07;;;2.13;;
12603;SDS011;6367;52.508;13.284;2023-08-21T12:14:18;3.23;;;1.63;;
12603;SDS011;6367;52.508;13.284;2023-08-21T12:16:44;6.00;;;2.30;;
12603;SDS011;6367;52.508;13.284;2023-08-21T12:19:09;1.60;;;1.40;;
12603;SDS011;6367;52.508;13.284;2023-08-21T12:21:36;2.80;;;1.60;;
12603;SDS011;6367;52.508;13.284;2023-08-21T12:24:03;3.43;;;1.30;;
12603;SDS011;6367;52.508;13.284;2023-08-21T12:26:30;3.83;;;1.53;;
12603;SDS011;6367;52.508;13.284;2023-08-21T12:28:55;1.57;;;1.30;;
12603;SDS011;6367;52.508;13.284;2023-08-21T12:31:21;2.37;;;1.63;;
12603;SDS011;6367;52.508;13.284;2023-08-21T12:33:47;2.70;;;2.20;;
12603;SDS011;6367;52.508;13.284;2023-08-21T12:36:12;3.30;;;1.73;;
12603;SDS011;6367;52.508;13.284;2023-08-21T12:38:38;3.20;;;2.00;;
12603;SDS011;6367;52.508;13.284;2023-08-21T12:41:03;6.57;;;2.20;;
12603;SDS011;6367;52.508;13.284;2023-08-21T12:43:30;6.40;;;2.20;;
12603;SDS011;6367;52.508;13.284;2023-08-21T12:45:56;2.30;;;1.50;;
12603;SDS011;6367;52.508;13.284;2023-08-21T12:48:22;1.87;;;1.20;;
12603;SDS011;6367;52.508;13.284;2023-08-21T12:50:47;2.37;;;1.43;;
12603;SDS011;6367;52.508;13.284;2023-08-21T12:53:13;1.23;;;1.13;;
12603;SDS011;6367;52.508;13.284;2023-08-21T12:55:39;3.60;;;1.43;;
12603;SDS011;6367;52.508;13.284;2023-08-21T12:58:04;1.83;;;1.40;;
12603;SDS011;6367;52.508;13.284;2023-08-21T13:00:30;2.13;;;1.17;;
12603;SDS011;6367;52.508;13.284;2023-08-21T13:02:57;1.63;;;1.00;;
12603;SDS011;6367;52.508;13.284;2023-08-21T13:05:23;1.53;;;1.07;;
12603;SDS011;6367;52.508;13.284;2023-08-21T13:07:49;1.40;;;0.93;;
12603;SDS011;6367;52.508;13.284;2023-08-21T13:10:14;1.73;;;1.00;;
12603;SDS011;6367;52.508;13.284;2023-08-21T13:12:40;2.20;;;1.37;;
12603;SDS011;6367;52.508;13.284;2023-08-21T13:15:05;1.97;;;1.10;;
12603;SDS011;6367;52.508;13.284;2023-08-21T13:17:34;1.40;;;1.10;;
12603;SDS011;6367;52.508;13.284;2023-08-21T13:20:00;1.53;;;1.10;;
12603;SDS011;6367;52.508;13.284;2023-08-21T13:22:26;1.23;;;1.13;;
12603;SDS011;6367;52.508;13.284;2023-08-21T13:24:52;2.30;;;1.33;;
12603;SDS011;6367;52.508;13.284;2023-08-21T13:27:17;1.30;;;1.20;;
12603;SDS011;6367;52.508;13.284;2023-08-21T13:29:43;1.20;;;1.03;;
12603;SDS011;6367;52.508;13.284;2023-08-21T13:32:10;1.57;;;1.30;;
12603;SDS011;6367;52.508;13.284;2023-08-21T13:34:36;3.03;;;1.20;;
12603;SDS011;6367;52.508;13.284;2023-08-21T13:37:01;1.53;;;1.20;;
12603;SDS011;6367;52.508;13.284;2023-08-21T13:39:27;1.90;;;1.00;;
12603;SDS011;6367;52.508;13.284;2023-08-21T13:41:53;1.53;;;1.20;;
12603;SDS011;6367;52.508;13.284;2023-08-21T13:44:19;1.87;;;1.10;;
12603;SDS011;6367;52.508;13.284;2023-08-21T13:46:44;1.50;;;1.00;;
12603;SDS011;6367;52.508;13.284;2023-08-21T13:49:10;1.90;;;0.97;;
12603;SDS011;6367;52.508;13.284;2023-08-21T13:51:35;4.13;;;1.30;;
12603;SDS011;6367;52.508;13.284;2023-08-21T13:54:01;3.10;;;1.30;;
12603;SDS011;6367;52.508;13.284;2023-08-21T13:56:27;1.10;;;0.97;;
12603;SDS011;6367;52.508;13.284;2023-08-21T13:58:52;2.03;;;1.20;;
12603;SDS011;6367;52.508;13.284;2023-08-21T14:01:18;1.90;;;1.10;;
12603;SDS011;6367;52.508;13.284;2023-08-21T14:03:43;1.33;;;1.03;;
12603;SDS011;6367;52.508;13.284;2023-08-21T14:06:09;3.53;;;1.27;;
12603;SDS011;6367;52.508;13.284;2023-08-21T14:08:36;2.53;;;1.30;;
12603;SDS011;6367;52.508;13.284;2023-08-21T14:11:02;1.80;;;1.13;;
12603;SDS011;6367;52.508;13.284;2023-08-21T14:13:28;1.80;;;0.90;;
12603;SDS011;6367;52.508;13.284;2023-08-21T14:15:54;2.57;;;1.37;;
12603;SDS011;6367;52.508;13.284;2023-08-21T14:18:19;1.40;;;1.10;;
12603;SDS011;6367;52.508;13.284;2023-08-21T14:20:45;3.90;;;1.13;;
12603;SDS011;6367;52.508;13.284;2023-08-21T14:23:10;1.50;;;1.10;;
12603;SDS011;6367;52.508;13.284;2023-08-21T14:25:36;1.73;;;1.10;;
12603;SDS011;6367;52.508;13.284;2023-08-21T14:28:02;2.10;;;1.20;;
12603;SDS011;6367;52.508;13.284;2023-08-21T14:30:28;1.77;;;1.17;;
12603;SDS011;6367;52.508;13.284;2023-08-21T14:32:54;2.40;;;1.20;;
12603;SDS011;6367;52.508;13.284;2023-08-21T14:35:20;1.20;;;1.07;;
12603;SDS011;6367;52.508;13.284;2023-08-21T14:37:45;1.53;;;1.13;;
12603;SDS011;6367;52.508;13.284;2023-08-21T14:40:11;1.90;;;1.17;;
12603;SDS011;6367;52.508;13.284;2023-08-21T14:42:37;2.03;;;1.17;;
12603;SDS011;6367;52.508;13.284;2023-08-21T14:45:03;1.03;;;0.93;;
12603;SDS011;6367;52.508;13.284;2023-08-21T14:47:29;1.30;;;1.13;;
12603;SDS011;6367;52.508;13.284;2023-08-21T14:49:55;1.37;;;1.03;;
12603;SDS011;6367;52.508;13.284;2023-08-21T14:52:20;1.20;;;1.10;;
12603;SDS011;6367;52.508;13.284;2023-08-21T14:54:48;1.43;;;1.07;;
12603;SDS011;6367;52.508;13.284;2023-08-21T14:57:15;1.50;;;1.00;;